Shadyside, Pennsylvania
Current Conditions -  °F | °C
As of 4:53 AM on Thursday 23 Oct 2014 (Local Time) from KAGC Reporting Station
Few Clouds Few Clouds  
Wind Chill: 39°   Ceiling: Unl
Heat Index: 44°   Visibility: 10mi
Dew Point: 39°   Wind: 9mph
Humidity: 82%   Direction: 320°NW
Pressure: 30.11"   Gusts: NA
Location:  40.4529°N, 79.9323°W
Report Text: KAGC 230853Z AUTO 32008KT 10SM FEW013 07/04 A3011 RMK AO2 SLP205 T00670039 55004 TSNO
Loading
Personal Weather Stations






























Interactive Weather Map
Tropical Storm Tracking
New forecast layout! Learn more

10-Day Weather Forecast

Advertisements
Track Severe Weather on mobile